Terminal Aerodrome Forecast
Issued by NWS

Home | Current Version | Previous Version | Text Only | Print | Product List | Glossary On
Versions: 1 2 3 4 5 6 7 8 9 10 11 12 13 14 15 16 17 18 19 20 21 22 23 24 25 26 27 28
197
FTUS46 KLOX 191731
TAFOXR
TAF
KOXR 191731Z 1918/2018 26008KT P6SM FEW015
     FM192000 28015G25KT P6SM FEW050
     FM200300 29012KT P6SM FEW025 BKN060
     FM201400 14010KT 5SM -RA BR SCT015 OVC025
     FM201600 16015G25KT 2SM RA BR BKN007 OVC015=

USA.gov is the U.S. government's official web portal to all federal, state and local government web resources and services.